createdAt,value
2022-08-19T00:00:57.330Z,16.20
2022-08-19T00:03:44.885Z,16.50
2022-08-19T00:06:32.923Z,16.13
2022-08-19T00:09:21.314Z,15.00
2022-08-19T00:12:08.436Z,16.30
2022-08-19T00:14:55.205Z,15.37
2022-08-19T00:17:46.620Z,15.87
2022-08-19T00:20:33.749Z,14.67
2022-08-19T00:23:20.622Z,16.13
2022-08-19T00:26:07.942Z,15.50
2022-08-19T00:28:54.459Z,15.67
2022-08-19T00:31:43.748Z,12.93
2022-08-19T00:34:32.467Z,17.07
2022-08-19T00:37:19.660Z,16.10
2022-08-19T00:40:11.557Z,19.23
2022-08-19T00:42:58.366Z,18.83
2022-08-19T00:45:45.247Z,19.30
2022-08-19T00:48:31.894Z,16.83
2022-08-19T00:51:20.353Z,14.17
2022-08-19T00:54:07.412Z,18.77
2022-08-19T00:56:55.203Z,20.73
2022-08-19T00:59:56.391Z,16.80
2022-08-19T01:02:48.965Z,16.77
2022-08-19T01:05:36.953Z,25.60
2022-08-19T01:08:25.733Z,18.97
2022-08-19T01:11:12.402Z,15.70
2022-08-19T01:13:59.477Z,17.23
2022-08-19T01:16:48.867Z,19.23
2022-08-19T01:19:43.708Z,17.30
2022-08-19T01:22:36.175Z,22.53
2022-08-19T01:25:27.853Z,21.33
2022-08-19T01:28:33.973Z,17.17
2022-08-19T01:31:26.918Z,16.40
2022-08-19T01:34:14.532Z,16.50
2022-08-19T01:37:04.374Z,19.23
2022-08-19T01:39:52.605Z,16.03
2022-08-19T01:42:40.436Z,20.60
2022-08-19T01:45:31.443Z,20.77
2022-08-19T01:48:21.839Z,16.47
2022-08-19T01:51:11.880Z,19.60
2022-08-19T01:54:03.242Z,18.97
2022-08-19T01:56:53.080Z,19.50
2022-08-19T01:59:43.139Z,15.30
2022-08-19T02:02:30.789Z,18.43
2022-08-19T02:05:19.041Z,19.03
2022-08-19T02:08:06.186Z,20.33
2022-08-19T02:10:52.928Z,19.37
2022-08-19T02:13:41.463Z,20.60
2022-08-19T02:16:28.639Z,19.80
2022-08-19T02:19:15.821Z,18.23
2022-08-19T02:22:02.780Z,20.53
2022-08-19T02:24:50.030Z,13.70
2022-08-19T02:27:36.723Z,14.13
2022-08-19T02:30:25.721Z,13.60
2022-08-19T02:33:12.405Z,15.13
2022-08-19T02:35:59.089Z,16.93
2022-08-19T02:38:54.330Z,17.10
2022-08-19T02:41:42.017Z,13.93
2022-08-19T02:44:31.832Z,12.10
2022-08-19T02:47:20.606Z,19.43
2022-08-19T02:50:08.114Z,18.90
2022-08-19T02:52:54.930Z,15.47
2022-08-19T02:55:46.839Z,15.17
2022-08-19T02:58:33.631Z,15.30
2022-08-19T03:01:25.852Z,12.83
2022-08-19T03:04:15.520Z,16.47
2022-08-19T03:07:10.798Z,16.00
2022-08-19T03:09:57.734Z,19.63
2022-08-19T03:12:44.386Z,13.00
2022-08-19T03:15:31.850Z,12.23
2022-08-19T03:18:19.106Z,14.43
2022-08-19T03:21:07.783Z,12.87
2022-08-19T03:24:00.834Z,14.47
2022-08-19T03:26:50.266Z,14.70
2022-08-19T03:29:43.336Z,12.13
2022-08-19T03:32:33.038Z,14.83
2022-08-19T03:35:21.320Z,15.00
2022-08-19T03:38:09.284Z,14.27
2022-08-19T03:40:56.070Z,12.87
2022-08-19T03:43:43.945Z,13.80
2022-08-19T03:46:32.786Z,13.27
2022-08-19T03:49:20.573Z,14.03
2022-08-19T03:52:08.600Z,13.90
2022-08-19T03:54:56.719Z,12.70
2022-08-19T03:57:43.453Z,15.67
2022-08-19T04:00:30.198Z,14.97
2022-08-19T04:03:21.310Z,18.90
2022-08-19T04:06:13.747Z,13.53
2022-08-19T04:09:06.090Z,16.43
2022-08-19T04:11:56.745Z,15.30
2022-08-19T04:14:43.461Z,13.40
2022-08-19T04:17:30.340Z,14.97
2022-08-19T04:20:24.014Z,14.40
2022-08-19T04:23:11.589Z,14.10
2022-08-19T04:25:59.843Z,13.27
2022-08-19T04:29:11.683Z,24.07
2022-08-19T04:32:09.093Z,13.63
2022-08-19T04:35:01.123Z,10.90
2022-08-19T04:37:52.752Z,13.27
2022-08-19T04:41:00.457Z,15.27
2022-08-19T04:43:49.877Z,19.07
2022-08-19T04:46:40.293Z,18.97
2022-08-19T04:49:37.885Z,12.67
2022-08-19T04:52:24.926Z,18.03
2022-08-19T04:55:13.702Z,16.80
2022-08-19T04:58:05.936Z,13.07
2022-08-19T05:00:53.726Z,14.70
2022-08-19T05:03:42.288Z,13.43
2022-08-19T05:06:34.762Z,15.93
2022-08-19T05:09:22.981Z,15.00
2022-08-19T05:12:10.503Z,14.77
2022-08-19T05:14:59.450Z,17.67
2022-08-19T05:18:06.801Z,15.00
2022-08-19T05:21:15.670Z,16.27
2022-08-19T05:24:03.194Z,19.23
2022-08-19T05:26:53.867Z,15.43
2022-08-19T05:29:42.699Z,18.27
2022-08-19T05:32:30.405Z,16.90
2022-08-19T05:35:20.178Z,19.13
2022-08-19T05:38:10.334Z,16.33
2022-08-19T05:40:58.595Z,16.00
2022-08-19T05:43:46.908Z,19.90
2022-08-19T05:46:34.091Z,16.90
2022-08-19T05:49:21.508Z,18.43
2022-08-19T05:52:11.775Z,18.37
2022-08-19T05:55:00.776Z,17.70
2022-08-19T05:57:47.555Z,16.07
2022-08-19T06:00:34.416Z,21.60
2022-08-19T06:03:21.102Z,20.80
2022-08-19T06:06:10.437Z,19.63
2022-08-19T06:08:57.297Z,22.40
2022-08-19T06:11:48.614Z,18.33
2022-08-19T06:14:41.845Z,19.50
2022-08-19T06:17:28.641Z,27.77
2022-08-19T06:20:34.368Z,22.20
2022-08-19T06:23:25.560Z,23.77
2022-08-19T06:26:14.234Z,26.47
2022-08-19T06:29:02.372Z,20.33
2022-08-19T06:31:51.592Z,23.97
2022-08-19T06:34:38.387Z,20.30
2022-08-19T06:37:25.509Z,26.97
2022-08-19T06:40:13.676Z,21.97
2022-08-19T06:43:03.107Z,24.50
2022-08-19T06:45:54.733Z,24.17
2022-08-19T06:48:45.086Z,23.23
2022-08-19T06:54:30.602Z,23.10
2022-08-19T06:57:18.109Z,24.20
2022-08-19T07:00:12.240Z,26.17
2022-08-19T07:03:05.994Z,23.40
2022-08-19T07:05:54.822Z,33.37
2022-08-19T07:08:42.160Z,26.97
2022-08-19T07:11:30.567Z,28.33
2022-08-19T07:14:19.978Z,28.60
2022-08-19T07:17:09.056Z,26.03
2022-08-19T07:19:58.038Z,23.50
2022-08-19T07:22:52.387Z,27.33
2022-08-19T07:25:41.285Z,26.50
2022-08-19T07:28:27.822Z,21.23
2022-08-19T07:31:17.666Z,24.27
2022-08-19T07:34:08.697Z,24.93
2022-08-19T07:36:57.802Z,23.43
2022-08-19T07:39:44.553Z,24.87
2022-08-19T07:42:31.666Z,25.33
2022-08-19T07:45:18.366Z,23.03
2022-08-19T07:48:06.086Z,25.17
2022-08-19T07:50:52.991Z,24.00
2022-08-19T07:53:41.176Z,24.80
2022-08-19T07:56:28.776Z,24.70
2022-08-19T07:59:15.275Z,28.13
2022-08-19T08:02:03.289Z,24.53
2022-08-19T08:05:07.268Z,25.20
2022-08-19T08:08:11.418Z,22.33
2022-08-19T08:10:59.534Z,24.23
2022-08-19T08:13:46.234Z,25.30
2022-08-19T08:16:35.020Z,25.77
2022-08-19T08:19:25.661Z,27.50
2022-08-19T08:22:34.823Z,22.70
2022-08-19T08:25:25.255Z,26.50
2022-08-19T08:28:17.862Z,26.33
2022-08-19T08:31:09.539Z,27.50
2022-08-19T08:33:56.817Z,26.40
2022-08-19T08:36:48.084Z,24.33
2022-08-19T08:39:34.807Z,25.33
2022-08-19T08:42:27.289Z,24.50
2022-08-19T08:45:18.962Z,27.07
2022-08-19T08:48:24.169Z,23.20
2022-08-19T08:51:20.341Z,24.40
2022-08-19T08:54:10.062Z,24.77
2022-08-19T08:56:56.687Z,23.10
2022-08-19T08:59:52.379Z,24.13
2022-08-19T09:02:40.539Z,22.37
2022-08-19T09:05:48.599Z,19.83
2022-08-19T09:08:45.363Z,18.73
2022-08-19T09:11:45.831Z,20.67
2022-08-19T09:14:51.060Z,21.53
2022-08-19T09:17:40.180Z,16.97
2022-08-19T09:20:27.021Z,17.33
2022-08-19T09:23:13.830Z,15.73
2022-08-19T09:26:00.639Z,16.77
2022-08-19T09:28:49.935Z,20.83
2022-08-19T09:31:36.641Z,16.20
2022-08-19T09:34:24.797Z,18.37
2022-08-19T09:37:12.095Z,19.07
2022-08-19T09:40:01.751Z,20.33
2022-08-19T09:42:49.748Z,14.63
2022-08-19T09:45:37.722Z,15.80
2022-08-19T09:48:24.662Z,12.33
2022-08-19T09:51:17.093Z,14.67
2022-08-19T09:54:05.477Z,16.03
2022-08-19T09:56:52.050Z,16.57
2022-08-19T09:59:39.501Z,16.73
2022-08-19T10:02:26.004Z,14.77
2022-08-19T10:05:33.235Z,17.93
2022-08-19T10:08:26.744Z,14.57
2022-08-19T10:11:28.600Z,18.43
2022-08-19T10:14:24.730Z,14.63
2022-08-19T10:17:19.258Z,13.40
2022-08-19T10:20:09.281Z,16.60
2022-08-19T10:22:55.999Z,14.27
2022-08-19T10:25:44.829Z,14.10
2022-08-19T10:28:31.340Z,17.33
2022-08-19T10:31:21.605Z,18.37
2022-08-19T10:34:30.235Z,13.87
2022-08-19T10:37:23.650Z,14.63
2022-08-19T10:40:12.850Z,14.73
2022-08-19T10:43:00.927Z,13.13
2022-08-19T10:45:54.978Z,13.50
2022-08-19T10:48:42.067Z,18.53
2022-08-19T10:51:47.976Z,15.73
2022-08-19T10:54:53.378Z,14.33
2022-08-19T10:58:01.412Z,16.17
2022-08-19T11:00:55.683Z,16.33
2022-08-19T11:03:42.196Z,15.40
2022-08-19T11:06:30.390Z,17.23
2022-08-19T11:09:19.084Z,17.20
2022-08-19T11:12:05.887Z,14.63
2022-08-19T11:14:53.743Z,16.07
2022-08-19T11:17:43.836Z,16.37
2022-08-19T11:20:31.646Z,16.63
2022-08-19T11:23:18.339Z,12.60
2022-08-19T11:26:05.199Z,14.60
2022-08-19T11:28:54.539Z,14.40
2022-08-19T11:31:44.448Z,15.53
2022-08-19T11:34:33.941Z,11.87
2022-08-19T11:37:20.867Z,15.97
2022-08-19T11:40:09.561Z,14.27
2022-08-19T11:42:59.389Z,13.33
2022-08-19T11:45:45.926Z,15.07
2022-08-19T11:48:33.819Z,15.20
2022-08-19T11:51:25.774Z,13.63
2022-08-19T11:54:13.862Z,15.30
2022-08-19T11:57:00.669Z,15.70
2022-08-19T11:59:51.328Z,13.37
2022-08-19T12:02:38.203Z,11.70
2022-08-19T12:05:25.042Z,14.17
2022-08-19T12:08:13.890Z,13.43
2022-08-19T12:11:02.079Z,16.87
2022-08-19T12:13:48.850Z,14.53
2022-08-19T12:16:37.799Z,15.53
2022-08-19T12:19:28.275Z,16.97
2022-08-19T12:22:14.978Z,15.73
2022-08-19T12:25:03.094Z,15.40
2022-08-19T12:27:57.325Z,16.43
2022-08-19T12:30:46.368Z,14.17
2022-08-19T12:33:34.630Z,17.53
2022-08-19T12:36:23.457Z,17.17
2022-08-19T12:39:12.567Z,17.57
2022-08-19T12:42:03.090Z,14.50
2022-08-19T12:44:51.068Z,17.90
2022-08-19T12:47:38.221Z,16.83
2022-08-19T12:50:27.603Z,14.90
2022-08-19T12:53:15.244Z,15.57
2022-08-19T12:56:02.025Z,15.53
2022-08-19T12:58:52.761Z,14.13
2022-08-19T13:01:39.902Z,13.13
2022-08-19T13:04:26.534Z,17.87
2022-08-19T13:07:13.142Z,19.40
2022-08-19T13:10:00.155Z,13.43
2022-08-19T13:12:48.927Z,12.87
2022-08-19T13:15:38.292Z,12.83
2022-08-19T13:18:25.129Z,12.67
2022-08-19T13:21:14.257Z,13.80
2022-08-19T13:24:01.359Z,11.97
2022-08-19T13:26:48.657Z,12.43
2022-08-19T13:30:03.930Z,11.97
2022-08-19T13:33:10.336Z,14.10
2022-08-19T13:36:01.692Z,15.47
2022-08-19T13:38:48.465Z,12.13
2022-08-19T13:41:35.734Z,12.63
2022-08-19T13:44:22.980Z,13.73
2022-08-19T13:47:10.888Z,12.57
2022-08-19T13:49:58.750Z,13.27
2022-08-19T13:52:46.418Z,14.93
2022-08-19T13:55:33.193Z,16.40
2022-08-19T13:58:19.949Z,15.37
2022-08-19T14:01:07.075Z,15.87
2022-08-19T14:03:53.834Z,14.67
2022-08-19T14:06:41.940Z,13.10
2022-08-19T14:09:28.528Z,12.50
2022-08-19T14:12:16.067Z,19.57
2022-08-19T14:15:16.356Z,13.17
2022-08-19T14:18:02.877Z,18.87
2022-08-19T14:20:50.167Z,14.10
2022-08-19T14:23:38.250Z,15.37
2022-08-19T14:26:25.405Z,12.90
2022-08-19T14:29:12.111Z,14.30
2022-08-19T14:32:00.022Z,14.23
2022-08-19T14:34:47.682Z,13.47
2022-08-19T14:37:40.092Z,14.13
2022-08-19T14:40:34.445Z,14.33
2022-08-19T14:43:20.974Z,15.60
2022-08-19T14:46:09.126Z,14.37
2022-08-19T14:48:59.893Z,11.90
2022-08-19T14:51:48.008Z,13.10
2022-08-19T14:54:34.618Z,15.73
2022-08-19T14:57:23.471Z,15.00
2022-08-19T15:00:14.046Z,15.20
2022-08-19T15:03:04.175Z,13.43
2022-08-19T15:05:51.534Z,13.63
2022-08-19T15:08:40.592Z,12.73
2022-08-19T15:11:28.866Z,11.33
2022-08-19T15:14:17.761Z,15.30
2022-08-19T15:17:05.473Z,14.63
2022-08-19T15:19:52.172Z,17.83
2022-08-19T15:22:39.533Z,14.23
2022-08-19T15:25:27.407Z,14.83
2022-08-19T15:28:16.440Z,13.83
2022-08-19T15:31:08.158Z,16.87
2022-08-19T15:34:07.476Z,12.40
2022-08-19T15:36:54.484Z,12.97
2022-08-19T15:39:41.184Z,15.17
2022-08-19T15:42:29.900Z,13.93
2022-08-19T15:45:22.930Z,12.43
2022-08-19T15:48:11.549Z,15.27
2022-08-19T15:50:58.339Z,12.00
2022-08-19T15:53:45.689Z,11.07
2022-08-19T15:56:46.353Z,15.47
2022-08-19T16:00:03.388Z,12.77
2022-08-19T16:03:08.464Z,13.07
2022-08-19T16:06:14.353Z,12.57
2022-08-19T16:09:04.581Z,12.90
2022-08-19T16:11:56.585Z,14.47
2022-08-19T16:14:43.669Z,14.97
2022-08-19T16:17:30.585Z,12.30
2022-08-19T16:20:20.029Z,11.23
2022-08-19T16:23:08.316Z,12.23
2022-08-19T16:25:54.952Z,12.90
2022-08-19T16:28:42.815Z,13.20
2022-08-19T16:31:30.333Z,13.13
2022-08-19T16:34:17.226Z,12.33
2022-08-19T16:37:03.839Z,13.33
2022-08-19T16:39:52.225Z,11.33
2022-08-19T16:42:39.922Z,13.27
2022-08-19T16:45:26.706Z,15.77
2022-08-19T16:48:13.338Z,12.60
2022-08-19T16:51:00.972Z,15.73
2022-08-19T16:53:47.349Z,15.57
2022-08-19T16:56:36.209Z,13.50
2022-08-19T16:59:23.154Z,11.57
2022-08-19T17:02:09.826Z,15.13
2022-08-19T17:04:57.750Z,13.50
2022-08-19T17:07:45.726Z,12.50
2022-08-19T17:10:32.491Z,10.70
2022-08-19T17:13:20.612Z,12.60
2022-08-19T17:16:07.872Z,15.10
2022-08-19T17:18:55.584Z,11.27
2022-08-19T17:21:42.250Z,12.47
2022-08-19T17:24:29.584Z,14.50
2022-08-19T17:27:16.456Z,14.70
2022-08-19T17:30:06.870Z,12.80
2022-08-19T17:32:53.310Z,14.30
2022-08-19T17:35:43.718Z,14.37
2022-08-19T17:38:31.462Z,12.60
2022-08-19T17:41:19.000Z,12.00
2022-08-19T17:44:06.159Z,10.57
2022-08-19T17:46:56.323Z,15.73
2022-08-19T17:49:42.898Z,13.27
2022-08-19T17:52:29.813Z,12.27
2022-08-19T17:58:17.489Z,14.67
2022-08-19T18:01:08.514Z,16.07
2022-08-19T18:03:58.482Z,15.73
2022-08-19T18:06:46.899Z,14.93
2022-08-19T18:09:42.872Z,18.50
2022-08-19T18:12:36.811Z,11.97
2022-08-19T18:15:25.450Z,13.93
2022-08-19T18:18:15.339Z,13.73
2022-08-19T18:21:03.669Z,17.13
2022-08-19T18:23:50.592Z,12.70
2022-08-19T18:26:42.174Z,16.63
2022-08-19T18:29:33.401Z,12.87
2022-08-19T18:32:24.128Z,14.50
2022-08-19T18:35:13.960Z,15.07
2022-08-19T18:38:23.466Z,14.03
2022-08-19T18:41:28.234Z,17.67
2022-08-19T18:44:32.317Z,15.93
2022-08-19T18:47:36.818Z,11.03
2022-08-19T18:50:23.629Z,13.13
2022-08-19T18:53:12.218Z,12.53
2022-08-19T18:55:59.782Z,11.73
2022-08-19T18:58:47.451Z,10.87
2022-08-19T19:01:37.072Z,11.43
2022-08-19T19:04:26.377Z,11.67
2022-08-19T19:07:15.768Z,10.50
2022-08-19T19:10:09.582Z,10.90
2022-08-19T19:12:56.369Z,13.07
2022-08-19T19:15:44.134Z,14.50
2022-08-19T19:18:31.386Z,16.23
2022-08-19T19:21:18.458Z,11.67
2022-08-19T19:24:05.858Z,12.33
2022-08-19T19:26:54.453Z,16.33
2022-08-19T19:29:42.116Z,12.97
2022-08-19T19:32:38.394Z,12.70
2022-08-19T19:35:25.761Z,16.87
2022-08-19T19:38:12.320Z,13.37
2022-08-19T19:41:11.741Z,15.07
2022-08-19T19:44:29.786Z,16.00
2022-08-19T19:47:08.077Z,11.23
2022-08-19T19:50:14.436Z,12.07
2022-08-19T19:53:02.220Z,12.10
2022-08-19T19:55:49.013Z,15.67
2022-08-19T19:58:36.541Z,13.87
2022-08-19T20:01:27.224Z,16.47
2022-08-19T20:04:14.157Z,10.37
2022-08-19T20:07:00.815Z,13.87
2022-08-19T20:09:59.209Z,17.27
2022-08-19T20:12:47.156Z,16.27
2022-08-19T20:15:36.148Z,13.57
2022-08-19T20:18:27.306Z,19.17
2022-08-19T20:21:14.183Z,15.57
2022-08-19T20:24:09.845Z,23.13
2022-08-19T20:26:56.850Z,12.97
2022-08-19T20:29:44.211Z,15.03
2022-08-19T20:32:31.338Z,12.90
2022-08-19T20:35:22.092Z,13.77
2022-08-19T20:38:09.668Z,15.97
2022-08-19T20:40:56.143Z,14.63
2022-08-19T20:43:42.817Z,14.50
2022-08-19T20:46:32.022Z,14.73
2022-08-19T20:49:18.499Z,13.53
2022-08-19T20:52:07.349Z,14.67
2022-08-19T20:54:53.983Z,13.00
2022-08-19T20:57:41.155Z,16.00
2022-08-19T21:00:29.463Z,10.73
2022-08-19T21:03:19.702Z,12.97
2022-08-19T21:06:06.541Z,10.70
2022-08-19T21:08:55.598Z,11.27
2022-08-19T21:11:42.663Z,17.40
2022-08-19T21:14:29.152Z,17.00
2022-08-19T21:17:16.058Z,13.23
2022-08-19T21:20:03.558Z,17.73
2022-08-19T21:22:50.792Z,15.50
2022-08-19T21:25:39.326Z,17.23
2022-08-19T21:28:34.263Z,15.03
2022-08-19T21:31:23.100Z,14.33
2022-08-19T21:34:09.960Z,14.37
2022-08-19T21:36:56.669Z,12.00
2022-08-19T21:39:43.384Z,17.60
2022-08-19T21:42:31.549Z,11.23
2022-08-19T21:45:19.872Z,12.90
2022-08-19T21:48:07.638Z,14.47
2022-08-19T21:50:55.135Z,15.77
2022-08-19T21:53:41.969Z,16.07
2022-08-19T21:56:30.409Z,11.33
2022-08-19T21:59:18.650Z,11.23
2022-08-19T22:02:19.153Z,11.33
2022-08-19T22:05:07.777Z,14.17
2022-08-19T22:08:05.102Z,13.33
2022-08-19T22:10:55.805Z,11.97
2022-08-19T22:13:44.878Z,12.13
2022-08-19T22:16:33.846Z,14.37
2022-08-19T22:19:20.209Z,12.27
2022-08-19T22:22:07.383Z,13.53
2022-08-19T22:24:58.377Z,14.13
2022-08-19T22:27:45.457Z,17.77
2022-08-19T22:30:34.050Z,13.03
2022-08-19T22:33:22.678Z,12.60
2022-08-19T22:36:10.116Z,12.70
2022-08-19T22:38:56.975Z,10.80
2022-08-19T22:41:43.677Z,13.70
2022-08-19T22:44:30.429Z,12.30
2022-08-19T22:47:17.632Z,12.13
2022-08-19T22:50:08.637Z,14.07
2022-08-19T22:53:02.762Z,16.03
2022-08-19T22:55:49.375Z,13.90
2022-08-19T22:58:36.459Z,12.47
2022-08-19T23:01:29.842Z,11.53
2022-08-19T23:04:17.343Z,15.87
2022-08-19T23:07:07.712Z,17.37
2022-08-19T23:09:54.469Z,11.97
2022-08-19T23:12:45.449Z,13.13
2022-08-19T23:15:34.093Z,14.43
2022-08-19T23:18:21.178Z,15.13
2022-08-19T23:21:09.605Z,15.60
2022-08-19T23:23:57.675Z,15.80
2022-08-19T23:27:04.451Z,17.40
2022-08-19T23:30:08.598Z,13.63
2022-08-19T23:32:56.617Z,11.53
2022-08-19T23:35:43.393Z,12.43
2022-08-19T23:38:32.422Z,13.87
2022-08-19T23:41:23.219Z,16.30
2022-08-19T23:44:14.434Z,12.83
2022-08-19T23:47:04.809Z,14.20
2022-08-19T23:49:53.997Z,13.53
2022-08-19T23:52:45.617Z,15.67
2022-08-19T23:55:35.375Z,14.47
2022-08-19T23:58:24.348Z,14.97
